createdAt,value
2023-05-02T00:01:05.296Z,7.46
2023-05-02T00:03:32.979Z,7.43
2023-05-02T00:06:00.408Z,7.38
2023-05-02T00:08:27.477Z,7.36
2023-05-02T00:10:54.299Z,7.35
2023-05-02T00:13:21.074Z,7.32
2023-05-02T00:15:47.741Z,7.30
2023-05-02T00:18:14.802Z,7.23
2023-05-02T00:20:42.250Z,7.20
2023-05-02T00:23:09.233Z,7.22
2023-05-02T00:25:36.100Z,7.22
2023-05-02T00:28:02.724Z,7.15
2023-05-02T00:30:29.344Z,7.14
2023-05-02T00:32:56.130Z,7.14
2023-05-02T00:35:22.799Z,7.11
2023-05-02T00:37:49.432Z,7.07
2023-05-02T00:40:16.238Z,7.04
2023-05-02T00:42:42.852Z,7.04
2023-05-02T00:45:09.793Z,7.05
2023-05-02T00:47:36.511Z,7.01
2023-05-02T00:50:05.568Z,6.97
2023-05-02T00:52:33.031Z,6.95
2023-05-02T00:54:59.788Z,6.96
2023-05-02T00:57:26.820Z,6.94
2023-05-02T00:59:53.434Z,6.93
2023-05-02T01:02:51.318Z,6.92
2023-05-02T01:05:31.053Z,6.91
2023-05-02T01:08:24.101Z,6.87
2023-05-02T01:11:21.457Z,6.82
2023-05-02T01:13:48.072Z,6.79
2023-05-02T01:16:14.920Z,6.80
2023-05-02T01:18:42.108Z,6.75
2023-05-02T01:21:10.535Z,6.67
2023-05-02T01:24:16.800Z,6.58
2023-05-02T01:26:50.183Z,6.46
2023-05-02T01:29:17.113Z,6.43
2023-05-02T01:31:46.126Z,6.42
2023-05-02T01:34:12.761Z,6.39
2023-05-02T01:36:46.678Z,6.34
2023-05-02T01:39:14.683Z,6.28
2023-05-02T01:41:41.805Z,6.21
2023-05-02T01:44:08.563Z,6.24
2023-05-02T01:46:36.833Z,6.26
2023-05-02T01:49:04.326Z,6.22
2023-05-02T01:51:33.025Z,6.18
2023-05-02T01:54:07.388Z,6.18
2023-05-02T01:56:36.994Z,6.19
2023-05-02T01:59:09.116Z,6.22
2023-05-02T02:01:36.640Z,6.23
2023-05-02T02:04:03.697Z,6.21
2023-05-02T02:06:31.571Z,6.20
2023-05-02T02:08:59.207Z,6.20
2023-05-02T02:11:37.913Z,6.19
2023-05-02T02:14:08.689Z,6.18
2023-05-02T02:16:38.187Z,6.11
2023-05-02T02:19:07.424Z,6.10
2023-05-02T02:21:34.984Z,6.10
2023-05-02T02:24:02.066Z,6.06
2023-05-02T02:26:28.768Z,6.04
2023-05-02T02:28:56.298Z,6.04
2023-05-02T02:31:25.786Z,6.04
2023-05-02T02:33:52.590Z,6.02
2023-05-02T02:36:25.412Z,6.01
2023-05-02T02:38:58.103Z,5.99
2023-05-02T02:41:31.920Z,5.99
2023-05-02T02:44:33.953Z,6.01
2023-05-02T02:47:12.264Z,6.07
2023-05-02T02:49:43.268Z,6.10
2023-05-02T02:52:24.920Z,6.07
2023-05-02T02:54:56.755Z,6.00
2023-05-02T02:57:52.727Z,5.92
2023-05-02T03:00:21.479Z,5.86
2023-05-02T03:02:48.413Z,5.82
2023-05-02T03:05:15.214Z,5.81
2023-05-02T03:07:41.902Z,5.79
2023-05-02T03:10:09.305Z,5.73
2023-05-02T03:12:36.270Z,5.71
2023-05-02T03:15:29.231Z,5.71
2023-05-02T03:17:56.185Z,5.72
2023-05-02T03:20:23.654Z,5.70
2023-05-02T03:22:50.367Z,5.69
2023-05-02T03:25:17.308Z,5.70
2023-05-02T03:27:45.198Z,5.72
2023-05-02T03:30:12.342Z,5.74
2023-05-02T03:32:39.046Z,5.75
2023-05-02T03:35:06.828Z,5.72
2023-05-02T03:37:35.357Z,5.67
2023-05-02T03:40:02.616Z,5.64
2023-05-02T03:42:29.824Z,5.66
2023-05-02T03:44:57.824Z,5.71
2023-05-02T03:47:26.081Z,5.78
2023-05-02T03:49:53.266Z,5.84
2023-05-02T03:52:19.970Z,5.88
2023-05-02T03:54:47.176Z,5.93
2023-05-02T03:57:14.144Z,6.01
2023-05-02T03:59:42.919Z,6.09
2023-05-02T04:02:12.943Z,6.19
2023-05-02T04:04:45.267Z,6.29
2023-05-02T04:07:18.533Z,6.37
2023-05-02T04:09:48.850Z,6.50
2023-05-02T04:12:16.320Z,6.64
2023-05-02T04:14:46.408Z,6.80
2023-05-02T04:17:15.666Z,6.97
2023-05-02T04:19:45.817Z,7.16
2023-05-02T04:22:13.091Z,7.36
2023-05-02T04:24:44.614Z,7.52
2023-05-02T04:27:13.690Z,7.66
2023-05-02T04:29:42.257Z,7.78
2023-05-02T04:32:10.331Z,7.89
2023-05-02T04:34:37.229Z,8.00
2023-05-02T04:37:04.067Z,8.11
2023-05-02T04:39:32.009Z,8.23
2023-05-02T04:42:05.149Z,8.35
2023-05-02T04:44:36.683Z,8.45
2023-05-02T04:47:04.684Z,8.55
2023-05-02T04:49:32.581Z,8.64
2023-05-02T04:51:59.322Z,8.72
2023-05-02T04:54:28.415Z,8.81
2023-05-02T04:57:00.237Z,8.90
2023-05-02T04:59:28.340Z,8.99
2023-05-02T05:01:58.780Z,9.07
2023-05-02T05:04:25.856Z,9.14
2023-05-02T05:06:52.940Z,9.22
2023-05-02T05:09:20.761Z,9.31
2023-05-02T05:11:47.468Z,9.39
2023-05-02T05:14:14.953Z,9.46
2023-05-02T05:16:44.660Z,9.54
2023-05-02T05:19:12.007Z,9.63
2023-05-02T05:21:39.229Z,9.68
2023-05-02T05:24:06.973Z,9.76
2023-05-02T05:26:33.590Z,9.85
2023-05-02T05:29:00.273Z,9.94
2023-05-02T05:31:31.864Z,10.04
2023-05-02T05:34:01.350Z,10.14
2023-05-02T05:36:28.928Z,10.24
2023-05-02T05:38:56.612Z,10.32
2023-05-02T05:41:24.722Z,10.42
2023-05-02T05:43:57.002Z,10.51
2023-05-02T05:46:25.483Z,10.57
2023-05-02T05:48:52.319Z,10.63
2023-05-02T05:51:19.450Z,10.71
2023-05-02T05:53:46.379Z,10.77
2023-05-02T05:56:13.984Z,10.83
2023-05-02T05:58:45.854Z,10.89
2023-05-02T06:01:14.065Z,10.93
2023-05-02T06:03:41.135Z,10.98
2023-05-02T06:06:08.075Z,11.04
2023-05-02T06:08:34.828Z,11.10
2023-05-02T06:11:01.519Z,11.16
2023-05-02T06:13:28.192Z,11.21
2023-05-02T06:15:55.338Z,11.27
2023-05-02T06:18:22.398Z,11.33
2023-05-02T06:20:49.059Z,11.40
2023-05-02T06:23:15.727Z,11.47
2023-05-02T06:25:42.655Z,11.54
2023-05-02T06:28:09.662Z,11.58
2023-05-02T06:30:36.600Z,11.63
2023-05-02T06:33:06.567Z,11.73
2023-05-02T06:35:33.296Z,11.80
2023-05-02T06:37:59.933Z,11.85
2023-05-02T06:40:26.801Z,11.95
2023-05-02T06:42:53.497Z,12.02
2023-05-02T06:45:20.098Z,12.10
2023-05-02T06:47:46.792Z,12.16
2023-05-02T06:50:13.444Z,12.22
2023-05-02T06:52:40.158Z,12.28
2023-05-02T06:55:07.701Z,12.33
2023-05-02T06:57:34.298Z,12.37
2023-05-02T07:00:01.522Z,12.42
2023-05-02T07:02:28.719Z,12.50
2023-05-02T07:04:55.639Z,12.59
2023-05-02T07:07:22.394Z,12.63
2023-05-02T07:09:49.077Z,12.66
2023-05-02T07:12:15.693Z,12.74
2023-05-02T07:14:42.687Z,12.88
2023-05-02T07:17:09.847Z,13.00
2023-05-02T07:19:37.109Z,13.12
2023-05-02T07:22:03.808Z,13.18
2023-05-02T07:24:30.468Z,13.22
2023-05-02T07:26:57.159Z,13.24
2023-05-02T07:29:23.877Z,13.28
2023-05-02T07:31:50.774Z,13.33
2023-05-02T07:34:17.424Z,13.37
2023-05-02T07:36:44.019Z,13.42
2023-05-02T07:39:10.683Z,13.47
2023-05-02T07:41:37.538Z,13.54
2023-05-02T07:44:04.287Z,13.60
2023-05-02T07:46:31.510Z,13.67
2023-05-02T07:48:58.326Z,13.75
2023-05-02T07:51:26.390Z,13.89
2023-05-02T07:53:54.495Z,14.01
2023-05-02T07:56:21.878Z,14.05
2023-05-02T07:58:48.539Z,14.11
2023-05-02T08:01:15.175Z,14.18
2023-05-02T08:03:41.948Z,14.20
2023-05-02T08:06:09.856Z,14.24
2023-05-02T08:08:37.144Z,14.35
2023-05-02T08:11:04.109Z,14.39
2023-05-02T08:13:30.747Z,14.37
2023-05-02T08:16:00.592Z,14.37
2023-05-02T08:18:27.405Z,14.38
2023-05-02T08:20:56.144Z,14.42
2023-05-02T08:23:23.020Z,14.48
2023-05-02T08:25:49.743Z,14.58
2023-05-02T08:28:16.439Z,14.72
2023-05-02T08:30:45.313Z,14.82
2023-05-02T08:33:11.990Z,14.88
2023-05-02T08:35:38.913Z,14.94
2023-05-02T08:38:05.586Z,15.03
2023-05-02T08:40:41.584Z,15.11
2023-05-02T08:43:11.712Z,15.19
2023-05-02T08:45:42.895Z,15.26
2023-05-02T08:48:11.108Z,15.24
2023-05-02T08:50:42.629Z,15.21
2023-05-02T08:53:09.628Z,15.30
2023-05-02T08:55:39.727Z,15.34
2023-05-02T08:58:07.299Z,15.42
2023-05-02T09:00:33.926Z,15.45
2023-05-02T09:03:28.293Z,15.50
2023-05-02T09:06:04.449Z,15.53
2023-05-02T09:08:31.181Z,15.67
2023-05-02T09:10:58.041Z,15.77
2023-05-02T09:13:35.316Z,15.76
2023-05-02T09:16:09.666Z,15.79
2023-05-02T09:18:37.284Z,15.87
2023-05-02T11:14:07.331Z,17.79
2023-05-02T11:16:53.668Z,17.82
2023-05-02T11:19:20.708Z,17.91
2023-05-02T11:21:47.318Z,18.03
2023-05-02T11:24:37.692Z,18.11
2023-05-02T11:27:29.419Z,18.24
2023-05-02T11:30:00.386Z,18.35
2023-05-02T11:32:45.677Z,18.37
2023-05-02T11:35:19.798Z,18.46
2023-05-02T11:38:13.703Z,18.60
2023-05-02T11:40:40.544Z,18.71
2023-05-02T11:43:15.504Z,18.77
2023-05-02T11:45:42.947Z,18.78
2023-05-02T11:48:15.110Z,18.79
2023-05-02T11:50:48.668Z,18.76
2023-05-02T11:53:18.170Z,18.76
2023-05-02T11:55:49.752Z,18.86
2023-05-02T11:58:17.644Z,19.01
2023-05-02T12:00:48.038Z,19.09
2023-05-02T12:06:19.462Z,19.16
2023-05-02T12:08:46.926Z,19.19
2023-05-02T12:11:15.840Z,19.26
2023-05-02T12:13:47.307Z,19.33
2023-05-02T12:16:14.763Z,19.42
2023-05-02T12:18:41.814Z,19.52
2023-05-02T12:21:08.525Z,19.59
2023-05-02T12:23:37.464Z,19.62
2023-05-02T12:26:22.255Z,19.61
2023-05-02T12:28:50.869Z,19.74
2023-05-02T12:31:17.613Z,19.82
2023-05-02T12:33:44.278Z,19.84
2023-05-02T12:36:11.478Z,19.93
2023-05-02T12:38:38.114Z,19.97
2023-05-02T12:41:04.891Z,19.98
2023-05-02T12:43:45.993Z,20.03
2023-05-02T12:46:12.607Z,20.19
2023-05-02T12:48:39.239Z,20.33
2023-05-02T12:51:06.005Z,20.45
2023-05-02T12:53:42.789Z,20.53
2023-05-02T12:56:10.854Z,20.63
2023-05-02T12:58:42.787Z,20.64
2023-05-02T13:01:09.992Z,20.68
2023-05-02T13:03:36.887Z,20.66
2023-05-02T13:06:03.943Z,20.67
2023-05-02T13:08:30.788Z,20.69
2023-05-02T13:10:57.759Z,20.68
2023-05-02T13:13:24.365Z,20.68
2023-05-02T13:15:50.950Z,20.79
2023-05-02T13:18:18.213Z,20.92
2023-05-02T13:20:45.108Z,20.92
2023-05-02T13:23:12.116Z,20.85
2023-05-02T13:25:38.755Z,20.82
2023-05-02T13:28:06.433Z,20.86
2023-05-02T13:30:33.416Z,20.89
2023-05-02T13:33:28.423Z,20.85
2023-05-02T13:35:55.913Z,20.79
2023-05-02T13:38:22.697Z,20.78
2023-05-02T13:40:49.967Z,20.81
2023-05-02T13:43:16.898Z,20.81
2023-05-02T13:45:43.775Z,20.82
2023-05-02T13:48:10.694Z,20.82
2023-05-02T13:50:39.144Z,20.81
2023-05-02T13:53:05.808Z,20.79
2023-05-02T13:55:32.553Z,20.73
2023-05-02T13:57:59.236Z,20.65
2023-05-02T14:00:28.021Z,20.59
2023-05-02T14:02:55.735Z,20.53
2023-05-02T14:05:22.468Z,20.46
2023-05-02T14:07:49.083Z,20.40
2023-05-02T14:10:15.750Z,20.36
2023-05-02T14:12:42.370Z,20.30
2023-05-02T14:15:09.489Z,20.24
2023-05-02T14:17:36.151Z,20.19
2023-05-02T14:20:03.795Z,20.14
2023-05-02T14:22:31.082Z,20.07
2023-05-02T14:24:57.745Z,20.04
2023-05-02T14:32:29.111Z,19.96
2023-05-02T14:34:55.749Z,19.93
2023-05-02T14:37:22.353Z,19.87
2023-05-02T14:39:54.727Z,19.82
2023-05-02T14:42:23.392Z,19.76
2023-05-02T14:44:50.159Z,19.72
2023-05-02T14:47:16.943Z,19.67
2023-05-02T14:49:43.987Z,19.62
2023-05-02T14:52:10.747Z,19.57
2023-05-02T14:54:37.600Z,19.54
2023-05-02T14:57:04.446Z,19.52
2023-05-02T14:59:31.464Z,19.52
2023-05-02T15:01:58.389Z,19.51
2023-05-02T15:04:27.381Z,19.51
2023-05-02T15:06:55.587Z,19.49
2023-05-02T15:09:23.418Z,19.47
2023-05-02T15:11:50.052Z,19.45
2023-05-02T15:14:16.695Z,19.42
2023-05-02T15:16:43.372Z,19.37
2023-05-02T15:19:10.415Z,19.33
2023-05-02T15:21:37.528Z,19.28
2023-05-02T15:24:04.397Z,19.24
2023-05-02T15:26:31.035Z,19.20
2023-05-02T15:28:57.918Z,19.15
2023-05-02T15:31:24.752Z,19.10
2023-05-02T15:33:51.625Z,19.06
2023-05-02T15:36:18.360Z,19.04
2023-05-02T15:38:44.961Z,19.01
2023-05-02T15:41:11.693Z,18.98
2023-05-02T15:45:23.741Z,18.91
2023-05-02T15:47:51.217Z,18.90
2023-05-02T15:50:17.961Z,18.89
2023-05-02T15:52:44.730Z,18.86
2023-05-02T15:55:13.173Z,18.82
2023-05-02T15:57:39.795Z,18.78
2023-05-02T16:00:07.560Z,18.75
2023-05-02T16:02:34.307Z,18.73
2023-05-02T16:05:01.792Z,18.70
2023-05-02T16:07:28.360Z,18.67
2023-05-02T16:09:54.965Z,18.64
2023-05-02T16:12:21.664Z,18.59
2023-05-02T16:14:48.274Z,18.55
2023-05-02T16:17:14.979Z,18.50
2023-05-02T16:19:41.592Z,18.47
2023-05-02T16:22:08.774Z,18.44
2023-05-02T16:24:35.541Z,18.40
2023-05-02T16:27:02.169Z,18.37
2023-05-02T16:29:28.904Z,18.33
2023-05-02T16:31:55.697Z,18.27
2023-05-02T16:34:23.908Z,18.21
2023-05-02T16:41:07.169Z,17.96
2023-05-02T16:43:34.260Z,17.92
2023-05-02T16:46:05.135Z,17.86
2023-05-02T16:48:32.374Z,17.82
2023-05-02T16:51:01.651Z,17.77
2023-05-02T16:53:30.969Z,17.70
2023-05-02T16:55:59.388Z,17.64
2023-05-02T16:59:03.167Z,17.57
2023-05-02T17:01:43.745Z,17.50
2023-05-02T17:04:10.434Z,17.45
2023-05-02T17:06:37.132Z,17.41
2023-05-02T17:09:04.080Z,17.36
2023-05-02T17:11:30.686Z,17.30
2023-05-02T17:13:57.354Z,17.25
2023-05-02T17:16:24.158Z,17.19
2023-05-02T17:18:50.778Z,17.12
2023-05-02T17:21:17.801Z,17.06
2023-05-02T17:23:44.910Z,17.01
2023-05-02T17:26:15.646Z,16.97
2023-05-02T17:28:43.835Z,16.91
2023-05-02T17:31:11.017Z,16.85
2023-05-02T17:33:37.776Z,16.80
2023-05-02T17:36:04.989Z,16.75
2023-05-02T17:38:32.191Z,16.70
2023-05-02T17:40:58.794Z,16.64
2023-05-02T17:43:25.413Z,16.58
2023-05-02T17:45:52.131Z,16.54
2023-05-02T17:48:19.012Z,16.49
2023-05-02T17:50:45.780Z,16.43
2023-05-02T17:53:12.777Z,16.37
2023-05-02T17:55:39.602Z,16.31
2023-05-02T17:58:06.262Z,16.26
2023-05-02T18:00:32.900Z,16.22
2023-05-02T18:02:59.816Z,16.17
2023-05-02T18:05:26.819Z,16.13
2023-05-02T18:07:53.708Z,16.07
2023-05-02T18:10:20.656Z,16.01
2023-05-02T18:12:47.406Z,15.96
2023-05-02T18:15:14.062Z,15.92
2023-05-02T18:17:40.965Z,15.86
2023-05-02T18:20:10.188Z,15.80
2023-05-02T18:22:37.707Z,15.76
2023-05-02T18:25:05.783Z,15.73
2023-05-02T18:27:33.063Z,15.68
2023-05-02T18:29:59.806Z,15.64
2023-05-02T18:32:26.486Z,15.61
2023-05-02T18:34:53.212Z,15.58
2023-05-02T18:37:19.828Z,15.55
2023-05-02T18:39:46.732Z,15.51
2023-05-02T18:42:14.807Z,15.48
2023-05-02T18:44:41.678Z,15.45
2023-05-02T18:47:08.538Z,15.41
2023-05-02T18:49:35.495Z,15.37
2023-05-02T18:52:03.398Z,15.35
2023-05-02T18:54:30.667Z,15.29
2023-05-02T18:56:57.319Z,15.26
2023-05-02T18:59:24.009Z,15.24
2023-05-02T19:01:50.941Z,15.20
2023-05-02T19:04:18.608Z,15.18
2023-05-02T19:06:45.416Z,15.15
2023-05-02T19:09:15.721Z,15.11
2023-05-02T19:11:42.859Z,15.05
2023-05-02T19:14:09.639Z,14.99
2023-05-02T19:16:38.186Z,14.94
2023-05-02T19:19:05.269Z,14.91
2023-05-02T19:21:31.969Z,14.90
2023-05-02T19:23:58.739Z,14.88
2023-05-02T19:26:25.764Z,14.84
2023-05-02T19:28:52.632Z,14.78
2023-05-02T19:31:21.211Z,14.73
2023-05-02T19:33:54.874Z,14.67
2023-05-02T19:36:22.733Z,14.61
2023-05-02T19:38:51.233Z,14.56
2023-05-02T19:41:18.033Z,14.52
2023-05-02T19:43:44.676Z,14.49
2023-05-02T19:46:11.541Z,14.44
2023-05-02T19:48:38.304Z,14.39
2023-05-02T19:51:05.008Z,14.33
2023-05-02T19:53:32.526Z,14.28
2023-05-02T19:56:00.030Z,14.24
2023-05-02T19:58:27.057Z,14.19
2023-05-02T20:00:53.800Z,14.14
2023-05-02T20:03:21.237Z,14.10
2023-05-02T20:05:49.283Z,14.04
2023-05-02T20:08:16.554Z,13.98
2023-05-02T20:10:46.264Z,13.94
2023-05-02T20:13:12.896Z,13.90
2023-05-02T20:15:39.612Z,13.85
2023-05-02T20:18:06.385Z,13.80
2023-05-02T20:20:33.118Z,13.75
2023-05-02T20:22:59.967Z,13.72
2023-05-02T20:25:26.856Z,13.70
2023-05-02T20:27:53.872Z,13.67
2023-05-02T20:30:20.879Z,13.63
2023-05-02T20:32:47.488Z,13.59
2023-05-02T20:35:14.108Z,13.57
2023-05-02T20:37:41.242Z,13.56
2023-05-02T20:40:10.005Z,13.55
2023-05-02T20:42:38.560Z,13.55
2023-05-02T20:45:07.349Z,13.54
2023-05-02T20:47:34.252Z,13.53
2023-05-02T20:50:01.879Z,13.52
2023-05-02T20:52:28.977Z,13.51
2023-05-02T20:54:56.020Z,13.53
2023-05-02T20:57:22.904Z,13.54
2023-05-02T20:59:49.570Z,13.52
2023-05-02T21:02:16.229Z,13.50
2023-05-02T21:04:42.943Z,13.48
2023-05-02T21:07:09.626Z,13.47
2023-05-02T21:09:36.240Z,13.44
2023-05-02T21:12:02.904Z,13.42
2023-05-02T21:14:29.604Z,13.39
2023-05-02T21:16:56.372Z,13.36
2023-05-02T21:19:22.978Z,13.33
2023-05-02T21:21:49.753Z,13.30
2023-05-02T21:24:16.429Z,13.29
2023-05-02T21:26:43.170Z,13.30
2023-05-02T21:29:11.004Z,13.29
2023-05-02T21:31:39.629Z,13.28
2023-05-02T21:34:06.549Z,13.27
2023-05-02T21:36:34.176Z,13.27
2023-05-02T21:39:00.830Z,13.25
2023-05-02T21:41:27.496Z,13.24
2023-05-02T21:43:54.369Z,13.23
2023-05-02T21:46:21.263Z,13.21
2023-05-02T21:48:48.417Z,13.18
2023-05-02T21:51:15.134Z,13.18
2023-05-02T21:53:41.927Z,13.18
2023-05-02T21:56:08.823Z,13.17
2023-05-02T21:58:35.673Z,13.15
2023-05-02T22:01:02.503Z,13.12
2023-05-02T22:03:31.042Z,13.08
2023-05-02T22:06:01.018Z,13.05
2023-05-02T22:08:27.899Z,13.02
2023-05-02T22:10:54.549Z,12.99
2023-05-02T22:13:21.319Z,12.96
2023-05-02T22:15:48.338Z,12.92
2023-05-02T22:18:16.703Z,12.87
2023-05-02T22:20:44.224Z,12.82
2023-05-02T22:23:11.422Z,12.80
2023-05-02T22:25:40.265Z,12.76
2023-05-02T22:28:07.208Z,12.75
2023-05-02T22:30:34.494Z,12.78
2023-05-02T22:33:01.918Z,12.79
2023-05-02T22:35:28.942Z,12.80
2023-05-02T22:37:58.507Z,12.78
2023-05-02T22:40:25.184Z,12.76
2023-05-02T22:42:51.876Z,12.73
2023-05-02T22:45:18.665Z,12.71
2023-05-02T22:47:45.920Z,12.68
2023-05-02T22:50:13.114Z,12.65
2023-05-02T22:52:39.821Z,12.64
2023-05-02T22:55:09.441Z,12.63
2023-05-02T22:57:37.145Z,12.62
2023-05-02T23:00:05.670Z,12.61
2023-05-02T23:02:32.642Z,12.60
2023-05-02T23:04:59.389Z,12.58
2023-05-02T23:07:26.346Z,12.57
2023-05-02T23:09:55.941Z,12.57
2023-05-02T23:12:22.568Z,12.56
2023-05-02T23:14:49.211Z,12.55
2023-05-02T23:17:15.920Z,12.53
2023-05-02T23:19:42.762Z,12.52
2023-05-02T23:22:09.434Z,12.50
2023-05-02T23:24:36.274Z,12.49
2023-05-02T23:27:03.873Z,12.48
2023-05-02T23:29:30.401Z,12.46
2023-05-02T23:31:57.461Z,12.45
2023-05-02T23:34:24.486Z,12.45
2023-05-02T23:36:51.812Z,12.41
2023-05-02T23:39:18.517Z,12.37
2023-05-02T23:41:45.160Z,12.35
2023-05-02T23:44:11.789Z,12.33
2023-05-02T23:46:38.706Z,12.30
2023-05-02T23:49:05.436Z,12.28
2023-05-02T23:51:32.304Z,12.25
2023-05-02T23:53:59.046Z,12.23
2023-05-02T23:56:26.182Z,12.22
2023-05-02T23:58:52.787Z,12.21
